sensor_id;sensor_type;location;lat;lon;timestamp;P1;durP1;ratioP1;P2;durP2;ratioP2
23080;SDS011;11708;50.570;8.532;2022-12-10T00:01:21;22.30;;;11.02;;
23080;SDS011;11708;50.570;8.532;2022-12-10T00:03:48;18.33;;;10.38;;
23080;SDS011;11708;50.570;8.532;2022-12-10T00:06:17;19.20;;;9.68;;
23080;SDS011;11708;50.570;8.532;2022-12-10T00:08:50;19.55;;;9.88;;
23080;SDS011;11708;50.570;8.532;2022-12-10T00:11:17;20.60;;;10.15;;
23080;SDS011;11708;50.570;8.532;2022-12-10T00:13:43;16.92;;;9.05;;
23080;SDS011;11708;50.570;8.532;2022-12-10T00:16:10;19.83;;;10.50;;
23080;SDS011;11708;50.570;8.532;2022-12-10T00:18:39;19.00;;;9.93;;
23080;SDS011;11708;50.570;8.532;2022-12-10T00:21:06;20.20;;;10.55;;
23080;SDS011;11708;50.570;8.532;2022-12-10T00:23:45;21.73;;;10.25;;
23080;SDS011;11708;50.570;8.532;2022-12-10T00:26:12;23.80;;;10.77;;
23080;SDS011;11708;50.570;8.532;2022-12-10T00:28:40;19.73;;;10.60;;
23080;SDS011;11708;50.570;8.532;2022-12-10T00:31:14;20.58;;;10.63;;
23080;SDS011;11708;50.570;8.532;2022-12-10T00:33:41;18.35;;;9.70;;
23080;SDS011;11708;50.570;8.532;2022-12-10T00:36:09;18.85;;;9.27;;
23080;SDS011;11708;50.570;8.532;2022-12-10T00:38:37;18.98;;;10.13;;
23080;SDS011;11708;50.570;8.532;2022-12-10T00:41:03;19.23;;;10.18;;
23080;SDS011;11708;50.570;8.532;2022-12-10T00:43:29;21.17;;;10.63;;
23080;SDS011;11708;50.570;8.532;2022-12-10T00:45:55;17.77;;;9.32;;
23080;SDS011;11708;50.570;8.532;2022-12-10T00:48:21;19.50;;;9.95;;
23080;SDS011;11708;50.570;8.532;2022-12-10T00:50:57;19.42;;;9.75;;
23080;SDS011;11708;50.570;8.532;2022-12-10T00:53:30;20.38;;;10.00;;
23080;SDS011;11708;50.570;8.532;2022-12-10T00:55:57;17.85;;;9.60;;
23080;SDS011;11708;50.570;8.532;2022-12-10T00:58:25;18.08;;;9.40;;
23080;SDS011;11708;50.570;8.532;2022-12-10T01:00:52;20.90;;;9.57;;
23080;SDS011;11708;50.570;8.532;2022-12-10T01:03:18;17.33;;;9.00;;
23080;SDS011;11708;50.570;8.532;2022-12-10T01:05:43;18.77;;;9.18;;
23080;SDS011;11708;50.570;8.532;2022-12-10T01:08:09;18.25;;;9.82;;
23080;SDS011;11708;50.570;8.532;2022-12-10T01:10:35;16.08;;;8.77;;
23080;SDS011;11708;50.570;8.532;2022-12-10T01:13:00;17.73;;;10.00;;
23080;SDS011;11708;50.570;8.532;2022-12-10T01:15:26;18.75;;;9.52;;
23080;SDS011;11708;50.570;8.532;2022-12-10T01:17:52;14.82;;;8.57;;
23080;SDS011;11708;50.570;8.532;2022-12-10T01:20:17;17.58;;;9.45;;
23080;SDS011;11708;50.570;8.532;2022-12-10T01:22:43;15.38;;;8.95;;
23080;SDS011;11708;50.570;8.532;2022-12-10T01:25:08;17.52;;;9.10;;
23080;SDS011;11708;50.570;8.532;2022-12-10T01:27:34;16.27;;;8.40;;
23080;SDS011;11708;50.570;8.532;2022-12-10T01:29:59;15.00;;;8.18;;
23080;SDS011;11708;50.570;8.532;2022-12-10T01:32:28;16.30;;;8.63;;
23080;SDS011;11708;50.570;8.532;2022-12-10T01:34:53;17.08;;;8.75;;
23080;SDS011;11708;50.570;8.532;2022-12-10T01:37:20;19.50;;;10.65;;
23080;SDS011;11708;50.570;8.532;2022-12-10T01:39:46;19.98;;;10.85;;
23080;SDS011;11708;50.570;8.532;2022-12-10T01:42:12;15.90;;;8.65;;
23080;SDS011;11708;50.570;8.532;2022-12-10T01:47:07;17.45;;;9.10;;
23080;SDS011;11708;50.570;8.532;2022-12-10T01:49:35;18.38;;;9.90;;
23080;SDS011;11708;50.570;8.532;2022-12-10T01:52:06;16.13;;;9.23;;
23080;SDS011;11708;50.570;8.532;2022-12-10T01:54:38;16.17;;;8.90;;
23080;SDS011;11708;50.570;8.532;2022-12-10T01:59:36;17.70;;;9.75;;
23080;SDS011;11708;50.570;8.532;2022-12-10T02:02:16;17.80;;;9.02;;
23080;SDS011;11708;50.570;8.532;2022-12-10T02:04:59;15.43;;;8.48;;
23080;SDS011;11708;50.570;8.532;2022-12-10T02:13:15;16.35;;;8.63;;
23080;SDS011;11708;50.570;8.532;2022-12-10T02:15:54;18.92;;;9.27;;
23080;SDS011;11708;50.570;8.532;2022-12-10T02:18:29;18.90;;;9.95;;
23080;SDS011;11708;50.570;8.532;2022-12-10T02:21:02;17.77;;;9.00;;
23080;SDS011;11708;50.570;8.532;2022-12-10T02:23:35;16.80;;;9.45;;
23080;SDS011;11708;50.570;8.532;2022-12-10T02:26:15;16.38;;;9.00;;
23080;SDS011;11708;50.570;8.532;2022-12-10T02:31:47;17.35;;;9.40;;
23080;SDS011;11708;50.570;8.532;2022-12-10T02:34:17;18.55;;;10.02;;
23080;SDS011;11708;50.570;8.532;2022-12-10T02:36:46;17.98;;;8.75;;
23080;SDS011;11708;50.570;8.532;2022-12-10T02:39:14;17.42;;;9.43;;
23080;SDS011;11708;50.570;8.532;2022-12-10T02:41:46;17.35;;;9.15;;
23080;SDS011;11708;50.570;8.532;2022-12-10T02:44:17;18.38;;;9.20;;
23080;SDS011;11708;50.570;8.532;2022-12-10T02:46:45;18.02;;;9.55;;
23080;SDS011;11708;50.570;8.532;2022-12-10T02:49:14;17.33;;;9.50;;
23080;SDS011;11708;50.570;8.532;2022-12-10T02:51:42;16.23;;;8.93;;
23080;SDS011;11708;50.570;8.532;2022-12-10T02:54:33;15.77;;;8.30;;
23080;SDS011;11708;50.570;8.532;2022-12-10T02:59:38;15.75;;;8.38;;
23080;SDS011;11708;50.570;8.532;2022-12-10T03:04:57;14.25;;;7.93;;
23080;SDS011;11708;50.570;8.532;2022-12-10T03:07:40;14.65;;;7.78;;
23080;SDS011;11708;50.570;8.532;2022-12-10T03:10:20;13.32;;;7.53;;
23080;SDS011;11708;50.570;8.532;2022-12-10T03:13:08;15.23;;;7.88;;
23080;SDS011;11708;50.570;8.532;2022-12-10T03:15:37;14.55;;;7.72;;
23080;SDS011;11708;50.570;8.532;2022-12-10T03:18:05;17.25;;;7.97;;
23080;SDS011;11708;50.570;8.532;2022-12-10T03:20:33;16.40;;;8.10;;
23080;SDS011;11708;50.570;8.532;2022-12-10T03:23:02;16.92;;;8.40;;
23080;SDS011;11708;50.570;8.532;2022-12-10T03:25:32;14.68;;;7.93;;
23080;SDS011;11708;50.570;8.532;2022-12-10T03:27:58;13.90;;;7.72;;
23080;SDS011;11708;50.570;8.532;2022-12-10T03:30:25;15.02;;;8.70;;
23080;SDS011;11708;50.570;8.532;2022-12-10T03:32:51;14.93;;;8.80;;
23080;SDS011;11708;50.570;8.532;2022-12-10T03:35:18;15.80;;;8.20;;
23080;SDS011;11708;50.570;8.532;2022-12-10T03:37:46;19.73;;;9.50;;
23080;SDS011;11708;50.570;8.532;2022-12-10T03:40:14;18.50;;;8.93;;
23080;SDS011;11708;50.570;8.532;2022-12-10T03:42:42;17.52;;;9.40;;
23080;SDS011;11708;50.570;8.532;2022-12-10T03:45:08;18.52;;;9.52;;
23080;SDS011;11708;50.570;8.532;2022-12-10T03:47:37;20.70;;;9.65;;
23080;SDS011;11708;50.570;8.532;2022-12-10T03:50:03;15.23;;;8.13;;
23080;SDS011;11708;50.570;8.532;2022-12-10T03:52:29;18.42;;;9.60;;
23080;SDS011;11708;50.570;8.532;2022-12-10T03:54:54;18.45;;;10.23;;
23080;SDS011;11708;50.570;8.532;2022-12-10T03:57:20;18.58;;;9.52;;
23080;SDS011;11708;50.570;8.532;2022-12-10T03:59:45;20.50;;;9.55;;
23080;SDS011;11708;50.570;8.532;2022-12-10T04:02:14;17.10;;;9.38;;
23080;SDS011;11708;50.570;8.532;2022-12-10T04:04:40;19.95;;;9.90;;
23080;SDS011;11708;50.570;8.532;2022-12-10T04:07:05;18.17;;;9.68;;
23080;SDS011;11708;50.570;8.532;2022-12-10T04:09:31;18.40;;;9.68;;
23080;SDS011;11708;50.570;8.532;2022-12-10T04:11:57;21.33;;;10.00;;
23080;SDS011;11708;50.570;8.532;2022-12-10T04:14:23;18.55;;;9.88;;
23080;SDS011;11708;50.570;8.532;2022-12-10T04:17:08;21.48;;;10.40;;
23080;SDS011;11708;50.570;8.532;2022-12-10T04:19:34;20.23;;;9.82;;
23080;SDS011;11708;50.570;8.532;2022-12-10T04:21:59;16.92;;;9.05;;
23080;SDS011;11708;50.570;8.532;2022-12-10T04:24:43;19.65;;;9.60;;
23080;SDS011;11708;50.570;8.532;2022-12-10T04:27:29;20.25;;;9.95;;
23080;SDS011;11708;50.570;8.532;2022-12-10T04:29:57;19.50;;;10.60;;
23080;SDS011;11708;50.570;8.532;2022-12-10T04:32:25;18.55;;;9.43;;
23080;SDS011;11708;50.570;8.532;2022-12-10T04:34:52;20.48;;;9.82;;
23080;SDS011;11708;50.570;8.532;2022-12-10T04:37:17;19.10;;;9.98;;
23080;SDS011;11708;50.570;8.532;2022-12-10T04:39:44;19.38;;;10.57;;
23080;SDS011;11708;50.570;8.532;2022-12-10T04:42:10;20.55;;;10.10;;
23080;SDS011;11708;50.570;8.532;2022-12-10T04:44:37;21.60;;;9.50;;
23080;SDS011;11708;50.570;8.532;2022-12-10T04:47:03;20.08;;;10.18;;
23080;SDS011;11708;50.570;8.532;2022-12-10T04:49:30;17.60;;;9.15;;
23080;SDS011;11708;50.570;8.532;2022-12-10T04:51:57;20.70;;;10.10;;
23080;SDS011;11708;50.570;8.532;2022-12-10T04:54:24;19.90;;;9.63;;
23080;SDS011;11708;50.570;8.532;2022-12-10T04:56:51;20.55;;;10.00;;
23080;SDS011;11708;50.570;8.532;2022-12-10T04:59:16;18.85;;;9.80;;
23080;SDS011;11708;50.570;8.532;2022-12-10T05:01:42;19.15;;;9.10;;
23080;SDS011;11708;50.570;8.532;2022-12-10T05:04:09;17.35;;;8.68;;
23080;SDS011;11708;50.570;8.532;2022-12-10T05:06:37;16.95;;;9.32;;
23080;SDS011;11708;50.570;8.532;2022-12-10T05:09:03;17.48;;;9.77;;
23080;SDS011;11708;50.570;8.532;2022-12-10T05:11:30;19.90;;;9.15;;
23080;SDS011;11708;50.570;8.532;2022-12-10T05:13:56;18.15;;;9.02;;
23080;SDS011;11708;50.570;8.532;2022-12-10T05:16:24;17.65;;;9.25;;
23080;SDS011;11708;50.570;8.532;2022-12-10T05:18:50;16.95;;;8.80;;
23080;SDS011;11708;50.570;8.532;2022-12-10T05:21:18;16.42;;;8.88;;
23080;SDS011;11708;50.570;8.532;2022-12-10T05:23:49;17.23;;;9.32;;
23080;SDS011;11708;50.570;8.532;2022-12-10T05:26:17;19.83;;;9.80;;
23080;SDS011;11708;50.570;8.532;2022-12-10T05:28:47;17.80;;;9.05;;
23080;SDS011;11708;50.570;8.532;2022-12-10T05:31:18;18.50;;;9.52;;
23080;SDS011;11708;50.570;8.532;2022-12-10T05:33:52;21.65;;;9.85;;
23080;SDS011;11708;50.570;8.532;2022-12-10T05:36:20;21.20;;;10.30;;
23080;SDS011;11708;50.570;8.532;2022-12-10T05:38:47;19.95;;;10.27;;
23080;SDS011;11708;50.570;8.532;2022-12-10T05:41:20;18.85;;;10.07;;
23080;SDS011;11708;50.570;8.532;2022-12-10T05:43:48;22.55;;;10.07;;
23080;SDS011;11708;50.570;8.532;2022-12-10T05:46:17;21.45;;;9.10;;
23080;SDS011;11708;50.570;8.532;2022-12-10T05:48:44;17.30;;;9.48;;
23080;SDS011;11708;50.570;8.532;2022-12-10T05:51:11;20.00;;;10.02;;
23080;SDS011;11708;50.570;8.532;2022-12-10T05:53:44;18.27;;;9.32;;
23080;SDS011;11708;50.570;8.532;2022-12-10T05:56:17;20.52;;;9.60;;
23080;SDS011;11708;50.570;8.532;2022-12-10T05:58:45;18.45;;;9.80;;
23080;SDS011;11708;50.570;8.532;2022-12-10T06:01:16;20.90;;;10.38;;
23080;SDS011;11708;50.570;8.532;2022-12-10T06:03:44;20.08;;;9.93;;
23080;SDS011;11708;50.570;8.532;2022-12-10T06:06:10;21.13;;;10.35;;
23080;SDS011;11708;50.570;8.532;2022-12-10T06:08:36;19.25;;;10.15;;
23080;SDS011;11708;50.570;8.532;2022-12-10T06:11:05;19.92;;;10.98;;
23080;SDS011;11708;50.570;8.532;2022-12-10T06:13:33;19.38;;;9.98;;
23080;SDS011;11708;50.570;8.532;2022-12-10T06:15:58;21.88;;;10.75;;
23080;SDS011;11708;50.570;8.532;2022-12-10T06:18:24;18.73;;;9.93;;
23080;SDS011;11708;50.570;8.532;2022-12-10T06:20:50;17.45;;;8.93;;
23080;SDS011;11708;50.570;8.532;2022-12-10T06:23:16;18.73;;;9.63;;
23080;SDS011;11708;50.570;8.532;2022-12-10T06:25:41;20.25;;;9.52;;
23080;SDS011;11708;50.570;8.532;2022-12-10T06:28:07;19.55;;;9.57;;
23080;SDS011;11708;50.570;8.532;2022-12-10T06:30:33;17.13;;;9.30;;
23080;SDS011;11708;50.570;8.532;2022-12-10T06:32:59;18.80;;;9.43;;
23080;SDS011;11708;50.570;8.532;2022-12-10T06:35:25;19.98;;;10.55;;
23080;SDS011;11708;50.570;8.532;2022-12-10T06:37:51;22.35;;;10.45;;
23080;SDS011;11708;50.570;8.532;2022-12-10T06:40:17;20.30;;;9.18;;
23080;SDS011;11708;50.570;8.532;2022-12-10T06:42:42;20.55;;;8.93;;
23080;SDS011;11708;50.570;8.532;2022-12-10T06:45:08;17.60;;;9.07;;
23080;SDS011;11708;50.570;8.532;2022-12-10T06:47:37;20.33;;;9.90;;
23080;SDS011;11708;50.570;8.532;2022-12-10T06:50:03;18.88;;;9.15;;
23080;SDS011;11708;50.570;8.532;2022-12-10T06:52:32;19.55;;;9.80;;
23080;SDS011;11708;50.570;8.532;2022-12-10T06:54:58;20.20;;;10.43;;
23080;SDS011;11708;50.570;8.532;2022-12-10T06:57:23;20.85;;;9.98;;
23080;SDS011;11708;50.570;8.532;2022-12-10T06:59:49;20.90;;;9.98;;
23080;SDS011;11708;50.570;8.532;2022-12-10T07:02:14;20.63;;;10.43;;
23080;SDS011;11708;50.570;8.532;2022-12-10T07:04:40;17.48;;;9.60;;
23080;SDS011;11708;50.570;8.532;2022-12-10T07:07:06;18.55;;;9.38;;
23080;SDS011;11708;50.570;8.532;2022-12-10T07:09:32;20.52;;;10.40;;
23080;SDS011;11708;50.570;8.532;2022-12-10T07:11:58;20.27;;;9.95;;
23080;SDS011;11708;50.570;8.532;2022-12-10T07:14:23;20.60;;;10.43;;
23080;SDS011;11708;50.570;8.532;2022-12-10T07:16:49;21.95;;;10.85;;
23080;SDS011;11708;50.570;8.532;2022-12-10T07:19:15;21.50;;;10.80;;
23080;SDS011;11708;50.570;8.532;2022-12-10T07:21:41;22.25;;;11.23;;
23080;SDS011;11708;50.570;8.532;2022-12-10T07:24:11;24.20;;;11.65;;
23080;SDS011;11708;50.570;8.532;2022-12-10T07:26:40;20.40;;;11.02;;
23080;SDS011;11708;50.570;8.532;2022-12-10T07:29:08;22.60;;;11.32;;
23080;SDS011;11708;50.570;8.532;2022-12-10T07:31:37;22.65;;;11.57;;
23080;SDS011;11708;50.570;8.532;2022-12-10T07:34:02;24.48;;;10.68;;
23080;SDS011;11708;50.570;8.532;2022-12-10T07:36:28;23.80;;;11.43;;
23080;SDS011;11708;50.570;8.532;2022-12-10T07:38:54;18.80;;;10.13;;
23080;SDS011;11708;50.570;8.532;2022-12-10T07:41:23;22.13;;;11.25;;
23080;SDS011;11708;50.570;8.532;2022-12-10T07:43:50;22.13;;;11.25;;
23080;SDS011;11708;50.570;8.532;2022-12-10T07:46:23;25.02;;;12.05;;
23080;SDS011;11708;50.570;8.532;2022-12-10T07:48:53;20.63;;;10.95;;
23080;SDS011;11708;50.570;8.532;2022-12-10T07:51:19;20.77;;;10.52;;
23080;SDS011;11708;50.570;8.532;2022-12-10T07:53:47;23.90;;;11.15;;
23080;SDS011;11708;50.570;8.532;2022-12-10T07:56:16;23.30;;;10.55;;
23080;SDS011;11708;50.570;8.532;2022-12-10T07:58:42;21.17;;;10.98;;
23080;SDS011;11708;50.570;8.532;2022-12-10T08:01:10;23.15;;;10.98;;
23080;SDS011;11708;50.570;8.532;2022-12-10T08:03:37;20.40;;;11.00;;
23080;SDS011;11708;50.570;8.532;2022-12-10T08:06:04;21.48;;;10.13;;
23080;SDS011;11708;50.570;8.532;2022-12-10T08:08:34;22.73;;;10.90;;
23080;SDS011;11708;50.570;8.532;2022-12-10T08:11:01;19.48;;;10.68;;
23080;SDS011;11708;50.570;8.532;2022-12-10T08:13:28;21.88;;;10.82;;
23080;SDS011;11708;50.570;8.532;2022-12-10T08:15:59;22.63;;;10.77;;
23080;SDS011;11708;50.570;8.532;2022-12-10T08:18:27;21.23;;;11.10;;
23080;SDS011;11708;50.570;8.532;2022-12-10T08:20:52;23.33;;;11.30;;
23080;SDS011;11708;50.570;8.532;2022-12-10T08:23:18;23.90;;;11.45;;
23080;SDS011;11708;50.570;8.532;2022-12-10T08:25:44;20.30;;;10.85;;
23080;SDS011;11708;50.570;8.532;2022-12-10T08:28:09;23.05;;;11.68;;
23080;SDS011;11708;50.570;8.532;2022-12-10T08:30:35;22.40;;;11.00;;
23080;SDS011;11708;50.570;8.532;2022-12-10T08:33:00;19.50;;;10.93;;
23080;SDS011;11708;50.570;8.532;2022-12-10T08:35:29;22.30;;;10.80;;
23080;SDS011;11708;50.570;8.532;2022-12-10T08:37:55;21.35;;;10.07;;
23080;SDS011;11708;50.570;8.532;2022-12-10T08:40:20;20.92;;;10.30;;
23080;SDS011;11708;50.570;8.532;2022-12-10T08:42:46;19.70;;;9.63;;
23080;SDS011;11708;50.570;8.532;2022-12-10T08:45:11;19.10;;;10.20;;
23080;SDS011;11708;50.570;8.532;2022-12-10T08:47:37;23.75;;;9.98;;
23080;SDS011;11708;50.570;8.532;2022-12-10T08:50:02;19.00;;;9.52;;
23080;SDS011;11708;50.570;8.532;2022-12-10T08:52:29;21.95;;;9.23;;
23080;SDS011;11708;50.570;8.532;2022-12-10T08:54:57;21.42;;;10.07;;
23080;SDS011;11708;50.570;8.532;2022-12-10T08:57:24;21.58;;;9.25;;
23080;SDS011;11708;50.570;8.532;2022-12-10T08:59:50;21.50;;;9.98;;
23080;SDS011;11708;50.570;8.532;2022-12-10T09:02:15;20.27;;;9.57;;
23080;SDS011;11708;50.570;8.532;2022-12-10T09:04:41;18.40;;;9.30;;
23080;SDS011;11708;50.570;8.532;2022-12-10T09:07:07;17.48;;;8.75;;
23080;SDS011;11708;50.570;8.532;2022-12-10T09:09:33;19.33;;;9.38;;
23080;SDS011;11708;50.570;8.532;2022-12-10T09:11:59;17.15;;;8.65;;
23080;SDS011;11708;50.570;8.532;2022-12-10T09:14:25;19.23;;;9.65;;
23080;SDS011;11708;50.570;8.532;2022-12-10T09:16:52;19.08;;;9.07;;
23080;SDS011;11708;50.570;8.532;2022-12-10T09:19:17;20.20;;;9.77;;
23080;SDS011;11708;50.570;8.532;2022-12-10T09:21:43;18.85;;;9.35;;
23080;SDS011;11708;50.570;8.532;2022-12-10T09:24:08;17.77;;;9.35;;
23080;SDS011;11708;50.570;8.532;2022-12-10T09:26:34;17.50;;;9.00;;
23080;SDS011;11708;50.570;8.532;2022-12-10T09:29:00;16.92;;;8.32;;
23080;SDS011;11708;50.570;8.532;2022-12-10T09:31:26;18.20;;;9.57;;
23080;SDS011;11708;50.570;8.532;2022-12-10T09:33:52;18.15;;;9.20;;
23080;SDS011;11708;50.570;8.532;2022-12-10T09:36:19;16.13;;;8.63;;
23080;SDS011;11708;50.570;8.532;2022-12-10T09:38:46;23.92;;;12.10;;
23080;SDS011;11708;50.570;8.532;2022-12-10T09:41:32;18.38;;;9.23;;
23080;SDS011;11708;50.570;8.532;2022-12-10T09:44:25;16.42;;;8.95;;
23080;SDS011;11708;50.570;8.532;2022-12-10T09:46:54;18.95;;;9.70;;
23080;SDS011;11708;50.570;8.532;2022-12-10T09:52:19;18.20;;;9.73;;
23080;SDS011;11708;50.570;8.532;2022-12-10T09:54:52;19.55;;;10.00;;
23080;SDS011;11708;50.570;8.532;2022-12-10T09:57:27;15.27;;;8.10;;
23080;SDS011;11708;50.570;8.532;2022-12-10T10:00:00;17.58;;;8.18;;
23080;SDS011;11708;50.570;8.532;2022-12-10T10:02:32;17.92;;;8.85;;
23080;SDS011;11708;50.570;8.532;2022-12-10T10:05:19;15.68;;;8.15;;
23080;SDS011;11708;50.570;8.532;2022-12-10T10:08:03;15.75;;;8.80;;
23080;SDS011;11708;50.570;8.532;2022-12-10T10:10:33;15.80;;;8.73;;
23080;SDS011;11708;50.570;8.532;2022-12-10T10:13:15;17.55;;;8.63;;
23080;SDS011;11708;50.570;8.532;2022-12-10T10:15:57;13.52;;;8.20;;
23080;SDS011;11708;50.570;8.532;2022-12-10T10:18:51;13.70;;;7.57;;
23080;SDS011;11708;50.570;8.532;2022-12-10T10:21:27;14.75;;;8.07;;
23080;SDS011;11708;50.570;8.532;2022-12-10T10:23:55;13.00;;;7.85;;
23080;SDS011;11708;50.570;8.532;2022-12-10T10:26:23;12.43;;;8.07;;
23080;SDS011;11708;50.570;8.532;2022-12-10T10:28:54;14.32;;;7.90;;
23080;SDS011;11708;50.570;8.532;2022-12-10T10:31:24;13.40;;;7.47;;
23080;SDS011;11708;50.570;8.532;2022-12-10T10:33:54;15.23;;;8.00;;
23080;SDS011;11708;50.570;8.532;2022-12-10T10:36:39;12.27;;;7.75;;
23080;SDS011;11708;50.570;8.532;2022-12-10T10:41:40;12.18;;;6.88;;
23080;SDS011;11708;50.570;8.532;2022-12-10T10:44:13;11.23;;;6.72;;
23080;SDS011;11708;50.570;8.532;2022-12-10T10:46:44;11.80;;;7.00;;
23080;SDS011;11708;50.570;8.532;2022-12-10T10:49:13;11.27;;;7.00;;
23080;SDS011;11708;50.570;8.532;2022-12-10T10:51:44;11.88;;;7.20;;
23080;SDS011;11708;50.570;8.532;2022-12-10T10:54:30;12.88;;;8.18;;
23080;SDS011;11708;50.570;8.532;2022-12-10T10:56:58;11.18;;;7.15;;
23080;SDS011;11708;50.570;8.532;2022-12-10T10:59:32;10.80;;;7.03;;
23080;SDS011;11708;50.570;8.532;2022-12-10T11:05:04;10.70;;;7.10;;
23080;SDS011;11708;50.570;8.532;2022-12-10T11:07:40;12.02;;;7.13;;
23080;SDS011;11708;50.570;8.532;2022-12-10T11:10:19;8.70;;;6.22;;
23080;SDS011;11708;50.570;8.532;2022-12-10T11:13:19;12.00;;;7.47;;
23080;SDS011;11708;50.570;8.532;2022-12-10T11:15:47;11.20;;;6.57;;
23080;SDS011;11708;50.570;8.532;2022-12-10T11:20:56;10.82;;;6.72;;
23080;SDS011;11708;50.570;8.532;2022-12-10T11:23:28;10.18;;;6.32;;
23080;SDS011;11708;50.570;8.532;2022-12-10T11:42:58;13.02;;;7.40;;
23080;SDS011;11708;50.570;8.532;2022-12-10T11:45:33;12.60;;;7.90;;
23080;SDS011;11708;50.570;8.532;2022-12-10T11:50:51;10.35;;;6.15;;
23080;SDS011;11708;50.570;8.532;2022-12-10T11:54:05;14.23;;;7.13;;
23080;SDS011;11708;50.570;8.532;2022-12-10T12:07:14;11.27;;;6.57;;
23080;SDS011;11708;50.570;8.532;2022-12-10T12:10:07;10.75;;;6.25;;
23080;SDS011;11708;50.570;8.532;2022-12-10T12:13:12;12.05;;;6.97;;
23080;SDS011;11708;50.570;8.532;2022-12-10T12:16:25;11.10;;;6.47;;
23080;SDS011;11708;50.570;8.532;2022-12-10T12:21:02;12.20;;;7.38;;
23080;SDS011;11708;50.570;8.532;2022-12-10T12:26:06;11.52;;;6.50;;
23080;SDS011;11708;50.570;8.532;2022-12-10T12:28:49;11.75;;;6.75;;
23080;SDS011;11708;50.570;8.532;2022-12-10T12:31:20;14.35;;;7.35;;
23080;SDS011;11708;50.570;8.532;2022-12-10T12:36:16;11.20;;;6.63;;
23080;SDS011;11708;50.570;8.532;2022-12-10T12:38:51;13.52;;;7.32;;
23080;SDS011;11708;50.570;8.532;2022-12-10T12:41:37;13.23;;;7.05;;
23080;SDS011;11708;50.570;8.532;2022-12-10T12:49:46;12.57;;;7.15;;
23080;SDS011;11708;50.570;8.532;2022-12-10T12:52:23;12.43;;;7.00;;
23080;SDS011;11708;50.570;8.532;2022-12-10T12:54:56;14.57;;;7.35;;
23080;SDS011;11708;50.570;8.532;2022-12-10T12:57:29;13.52;;;7.72;;
23080;SDS011;11708;50.570;8.532;2022-12-10T13:00:12;12.70;;;7.75;;
23080;SDS011;11708;50.570;8.532;2022-12-10T13:05:35;12.98;;;7.35;;
23080;SDS011;11708;50.570;8.532;2022-12-10T13:10:49;13.98;;;8.05;;
23080;SDS011;11708;50.570;8.532;2022-12-10T13:13:35;12.38;;;7.22;;
23080;SDS011;11708;50.570;8.532;2022-12-10T13:22:03;9.63;;;6.13;;
23080;SDS011;11708;50.570;8.532;2022-12-10T13:29:54;17.30;;;6.97;;
23080;SDS011;11708;50.570;8.532;2022-12-10T13:42:42;13.77;;;6.85;;
23080;SDS011;11708;50.570;8.532;2022-12-10T13:45:29;10.70;;;6.60;;
23080;SDS011;11708;50.570;8.532;2022-12-10T13:51:03;13.77;;;7.90;;
23080;SDS011;11708;50.570;8.532;2022-12-10T13:56:28;13.95;;;7.82;;
23080;SDS011;11708;50.570;8.532;2022-12-10T14:04:30;13.77;;;8.18;;
23080;SDS011;11708;50.570;8.532;2022-12-10T14:07:01;18.02;;;8.55;;
23080;SDS011;11708;50.570;8.532;2022-12-10T14:09:30;14.23;;;8.40;;
23080;SDS011;11708;50.570;8.532;2022-12-10T14:12:07;15.23;;;8.57;;
23080;SDS011;11708;50.570;8.532;2022-12-10T14:14:40;16.17;;;9.00;;
23080;SDS011;11708;50.570;8.532;2022-12-10T14:17:20;15.43;;;8.43;;
23080;SDS011;11708;50.570;8.532;2022-12-10T14:19:54;16.38;;;8.82;;
23080;SDS011;11708;50.570;8.532;2022-12-10T14:22:31;17.33;;;9.10;;
23080;SDS011;11708;50.570;8.532;2022-12-10T14:25:00;16.55;;;9.00;;
23080;SDS011;11708;50.570;8.532;2022-12-10T14:27:31;17.38;;;8.35;;
23080;SDS011;11708;50.570;8.532;2022-12-10T14:30:04;16.83;;;8.70;;
23080;SDS011;11708;50.570;8.532;2022-12-10T14:32:42;18.00;;;9.05;;
23080;SDS011;11708;50.570;8.532;2022-12-10T14:35:24;15.25;;;8.85;;
23080;SDS011;11708;50.570;8.532;2022-12-10T14:37:52;14.75;;;8.45;;
23080;SDS011;11708;50.570;8.532;2022-12-10T14:40:24;16.35;;;8.45;;
23080;SDS011;11708;50.570;8.532;2022-12-10T14:43:05;17.65;;;9.38;;
23080;SDS011;11708;50.570;8.532;2022-12-10T14:45:38;12.63;;;7.30;;
23080;SDS011;11708;50.570;8.532;2022-12-10T14:48:21;14.10;;;8.10;;
23080;SDS011;11708;50.570;8.532;2022-12-10T14:50:47;15.05;;;8.02;;
23080;SDS011;11708;50.570;8.532;2022-12-10T14:53:23;13.75;;;8.18;;
23080;SDS011;11708;50.570;8.532;2022-12-10T14:55:50;16.08;;;8.45;;
23080;SDS011;11708;50.570;8.532;2022-12-10T14:58:26;14.23;;;7.90;;
23080;SDS011;11708;50.570;8.532;2022-12-10T15:00:56;16.77;;;7.28;;
23080;SDS011;11708;50.570;8.532;2022-12-10T15:03:27;13.63;;;8.07;;
23080;SDS011;11708;50.570;8.532;2022-12-10T15:05:59;16.30;;;8.52;;
23080;SDS011;11708;50.570;8.532;2022-12-10T15:08:27;15.93;;;8.07;;
23080;SDS011;11708;50.570;8.532;2022-12-10T15:10:55;13.15;;;7.88;;
23080;SDS011;11708;50.570;8.532;2022-12-10T15:13:32;15.02;;;8.38;;
23080;SDS011;11708;50.570;8.532;2022-12-10T15:16:02;13.57;;;7.35;;
23080;SDS011;11708;50.570;8.532;2022-12-10T15:18:32;17.92;;;8.65;;
23080;SDS011;11708;50.570;8.532;2022-12-10T15:23:42;14.68;;;7.53;;
23080;SDS011;11708;50.570;8.532;2022-12-10T15:28:46;14.55;;;7.57;;
23080;SDS011;11708;50.570;8.532;2022-12-10T15:34:00;16.83;;;8.40;;
23080;SDS011;11708;50.570;8.532;2022-12-10T15:39:35;15.93;;;8.48;;
23080;SDS011;11708;50.570;8.532;2022-12-10T15:42:08;18.15;;;8.27;;
23080;SDS011;11708;50.570;8.532;2022-12-10T15:44:37;15.35;;;8.77;;
23080;SDS011;11708;50.570;8.532;2022-12-10T15:47:11;17.38;;;8.70;;
23080;SDS011;11708;50.570;8.532;2022-12-10T15:49:38;15.77;;;7.88;;
23080;SDS011;11708;50.570;8.532;2022-12-10T15:52:04;16.67;;;8.75;;
23080;SDS011;11708;50.570;8.532;2022-12-10T15:54:32;17.42;;;8.80;;
23080;SDS011;11708;50.570;8.532;2022-12-10T15:57:04;20.48;;;9.18;;
23080;SDS011;11708;50.570;8.532;2022-12-10T15:59:39;17.85;;;8.70;;
23080;SDS011;11708;50.570;8.532;2022-12-10T16:07:58;22.10;;;9.15;;
23080;SDS011;11708;50.570;8.532;2022-12-10T16:10:27;19.40;;;9.35;;
23080;SDS011;11708;50.570;8.532;2022-12-10T16:12:56;20.35;;;9.18;;
23080;SDS011;11708;50.570;8.532;2022-12-10T16:15:32;20.67;;;8.57;;
23080;SDS011;11708;50.570;8.532;2022-12-10T16:18:03;16.88;;;8.48;;
23080;SDS011;11708;50.570;8.532;2022-12-10T16:20:30;21.67;;;8.77;;
23080;SDS011;11708;50.570;8.532;2022-12-10T16:22:58;16.90;;;8.90;;
23080;SDS011;11708;50.570;8.532;2022-12-10T16:25:26;21.45;;;10.15;;
23080;SDS011;11708;50.570;8.532;2022-12-10T16:27:54;17.90;;;9.43;;
23080;SDS011;11708;50.570;8.532;2022-12-10T16:30:21;17.23;;;9.45;;
23080;SDS011;11708;50.570;8.532;2022-12-10T16:32:49;16.35;;;8.55;;
23080;SDS011;11708;50.570;8.532;2022-12-10T16:35:16;20.80;;;9.73;;
23080;SDS011;11708;50.570;8.532;2022-12-10T16:37:46;19.33;;;8.57;;
23080;SDS011;11708;50.570;8.532;2022-12-10T16:40:23;20.77;;;9.85;;
23080;SDS011;11708;50.570;8.532;2022-12-10T16:42:49;22.73;;;9.65;;
23080;SDS011;11708;50.570;8.532;2022-12-10T16:45:30;20.10;;;9.50;;
23080;SDS011;11708;50.570;8.532;2022-12-10T16:48:04;24.10;;;10.43;;
23080;SDS011;11708;50.570;8.532;2022-12-10T16:50:30;20.45;;;10.00;;
23080;SDS011;11708;50.570;8.532;2022-12-10T16:53:01;19.02;;;9.48;;
23080;SDS011;11708;50.570;8.532;2022-12-10T16:55:32;18.55;;;9.57;;
23080;SDS011;11708;50.570;8.532;2022-12-10T16:57:59;19.42;;;9.68;;